createdAt,value
2019-01-25T00:00:18.399Z,0.00
2019-01-25T00:01:18.387Z,0.00
2019-01-25T00:02:18.385Z,0.00
2019-01-25T00:03:18.371Z,0.00
2019-01-25T00:04:18.362Z,0.00
2019-01-25T00:05:18.349Z,0.00
2019-01-25T00:06:18.339Z,0.00
2019-01-25T00:07:18.327Z,0.00
2019-01-25T00:08:18.320Z,0.00
2019-01-25T00:09:18.307Z,0.00
2019-01-25T00:10:18.301Z,0.00
2019-01-25T00:11:18.286Z,0.00
2019-01-25T00:12:18.275Z,0.00
2019-01-25T00:13:18.268Z,0.00
2019-01-25T00:14:18.255Z,0.00
2019-01-25T00:15:18.248Z,0.00
2019-01-25T00:16:18.237Z,0.00
2019-01-25T00:17:18.224Z,0.00
2019-01-25T00:18:18.212Z,0.00
2019-01-25T00:19:18.202Z,0.00
2019-01-25T00:20:18.195Z,0.00
2019-01-25T00:21:18.181Z,0.00
2019-01-25T00:22:18.173Z,0.00
2019-01-25T00:23:18.162Z,0.00
2019-01-25T00:24:18.150Z,0.00
2019-01-25T00:25:18.141Z,0.00
2019-01-25T00:26:18.132Z,0.00
2019-01-25T00:27:18.119Z,0.00
2019-01-25T00:28:18.114Z,0.00
2019-01-25T00:29:18.097Z,0.00
2019-01-25T00:30:18.086Z,0.00
2019-01-25T00:31:18.075Z,0.00
2019-01-25T00:32:18.067Z,0.00
2019-01-25T00:33:18.056Z,0.00
2019-01-25T00:34:18.053Z,0.00
2019-01-25T00:35:18.034Z,0.00
2019-01-25T00:36:18.033Z,0.00
2019-01-25T00:37:18.012Z,0.00
2019-01-25T00:38:18.004Z,0.00
2019-01-25T00:39:17.994Z,0.00
2019-01-25T00:40:17.982Z,0.00
2019-01-25T00:41:17.968Z,0.00
2019-01-25T00:42:17.955Z,0.00
2019-01-25T00:43:17.946Z,0.00
2019-01-25T00:44:17.938Z,0.00
2019-01-25T00:45:17.927Z,0.00
2019-01-25T00:46:17.920Z,0.00
2019-01-25T00:47:17.908Z,0.00
2019-01-25T00:48:17.897Z,0.00
2019-01-25T00:49:17.888Z,0.00
2019-01-25T00:50:17.875Z,0.00
2019-01-25T00:51:17.867Z,0.00
2019-01-25T00:52:17.855Z,0.00
2019-01-25T00:53:17.850Z,0.00
2019-01-25T00:54:17.838Z,0.00
2019-01-25T00:55:17.829Z,0.00
2019-01-25T00:56:17.814Z,0.00
2019-01-25T00:57:17.805Z,0.00
2019-01-25T00:58:17.793Z,0.00
2019-01-25T00:59:17.781Z,0.00
2019-01-25T01:00:17.771Z,0.00
2019-01-25T01:01:17.763Z,0.00
2019-01-25T01:02:17.753Z,0.00
2019-01-25T01:03:17.743Z,0.00
2019-01-25T01:04:17.734Z,0.00
2019-01-25T01:05:17.720Z,0.00
2019-01-25T01:06:17.712Z,0.00
2019-01-25T01:07:17.699Z,0.00
2019-01-25T01:08:17.690Z,0.00
2019-01-25T01:09:17.681Z,0.00
2019-01-25T01:10:17.668Z,0.00
2019-01-25T01:11:17.656Z,0.00
2019-01-25T01:12:17.646Z,0.00
2019-01-25T01:13:17.634Z,0.00
2019-01-25T01:14:17.623Z,0.00
2019-01-25T01:15:17.631Z,0.00
2019-01-25T01:16:17.603Z,0.00
2019-01-25T01:17:17.593Z,0.00
2019-01-25T01:18:17.582Z,0.00
2019-01-25T01:19:17.573Z,0.00
2019-01-25T01:20:17.562Z,0.00
2019-01-25T01:21:17.550Z,0.00
2019-01-25T01:22:17.544Z,0.00
2019-01-25T01:23:17.530Z,0.00
2019-01-25T01:24:17.524Z,0.00
2019-01-25T01:25:17.508Z,0.00
2019-01-25T01:26:17.500Z,0.00
2019-01-25T01:27:17.492Z,0.00
2019-01-25T01:28:17.477Z,0.00
2019-01-25T01:29:17.466Z,0.00
2019-01-25T01:30:17.458Z,0.00
2019-01-25T01:31:17.450Z,0.00
2019-01-25T01:32:17.437Z,0.00
2019-01-25T01:33:17.426Z,0.00
2019-01-25T01:34:17.422Z,0.00
2019-01-25T01:35:17.403Z,0.00
2019-01-25T01:36:17.399Z,0.00
2019-01-25T01:37:17.384Z,0.00
2019-01-25T01:38:17.373Z,0.00
2019-01-25T01:39:17.362Z,0.00
2019-01-25T01:40:21.791Z,0.00
2019-01-25T01:41:18.341Z,0.00
2019-01-25T01:42:17.332Z,0.00
2019-01-25T01:43:17.319Z,0.00
2019-01-25T01:44:17.313Z,0.00
2019-01-25T01:45:17.303Z,0.00
2019-01-25T01:46:17.290Z,0.00
2019-01-25T01:47:17.458Z,0.00
2019-01-25T01:48:17.269Z,0.00
2019-01-25T01:49:17.256Z,0.00
2019-01-25T01:50:17.247Z,0.00
2019-01-25T01:51:17.242Z,0.00
2019-01-25T01:52:17.225Z,0.00
2019-01-25T01:53:17.219Z,0.00
2019-01-25T01:54:17.203Z,0.00
2019-01-25T01:55:17.195Z,0.00
2019-01-25T01:56:17.184Z,0.00
2019-01-25T01:57:17.172Z,0.00
2019-01-25T01:58:17.165Z,0.00
2019-01-25T01:59:17.152Z,0.00
2019-01-25T02:00:17.140Z,0.00
2019-01-25T02:01:17.132Z,0.00
2019-01-25T02:02:17.119Z,0.00
2019-01-25T02:03:17.109Z,0.00
2019-01-25T02:04:17.158Z,0.00
2019-01-25T02:05:17.090Z,0.00
2019-01-25T02:06:17.077Z,0.00
2019-01-25T02:07:17.069Z,0.00
2019-01-25T02:08:17.056Z,0.00
2019-01-25T02:09:17.042Z,0.00
2019-01-25T02:10:17.034Z,0.00
2019-01-25T02:11:17.027Z,0.00
2019-01-25T02:12:17.015Z,0.00
2019-01-25T02:13:17.008Z,0.00
2019-01-25T02:14:16.993Z,0.00
2019-01-25T02:15:16.982Z,0.00
2019-01-25T02:16:16.974Z,0.00
2019-01-25T02:17:16.964Z,0.00
2019-01-25T02:18:16.953Z,0.00
2019-01-25T02:19:16.945Z,0.00
2019-01-25T02:20:16.934Z,0.00
2019-01-25T02:21:16.923Z,0.00
2019-01-25T02:22:16.916Z,0.00
2019-01-25T02:23:16.899Z,0.00
2019-01-25T02:24:16.888Z,0.00
2019-01-25T02:25:16.882Z,0.00
2019-01-25T02:26:16.897Z,0.00
2019-01-25T02:27:16.857Z,0.00
2019-01-25T02:28:16.849Z,0.00
2019-01-25T02:29:16.836Z,0.00
2019-01-25T02:30:16.826Z,0.00
2019-01-25T02:31:16.814Z,0.00
2019-01-25T02:32:16.804Z,0.00
2019-01-25T02:33:16.793Z,0.00
2019-01-25T02:34:16.782Z,0.00
2019-01-25T02:35:16.770Z,0.00
2019-01-25T02:36:16.764Z,0.00
2019-01-25T02:37:16.770Z,0.00
2019-01-25T02:38:16.741Z,0.00
2019-01-25T02:39:16.731Z,0.00
2019-01-25T02:40:16.723Z,0.00
2019-01-25T02:41:16.709Z,0.00
2019-01-25T02:42:16.699Z,0.00
2019-01-25T02:43:16.689Z,0.00
2019-01-25T02:44:16.678Z,0.00
2019-01-25T02:45:16.664Z,0.00
2019-01-25T02:46:16.653Z,0.00
2019-01-25T02:47:16.648Z,0.00
2019-01-25T02:48:16.638Z,0.00
2019-01-25T02:49:16.625Z,0.00
2019-01-25T02:50:16.616Z,0.00
2019-01-25T02:51:16.603Z,0.00
2019-01-25T02:52:16.593Z,0.00
2019-01-25T02:53:16.585Z,0.00
2019-01-25T02:54:16.573Z,0.00
2019-01-25T02:55:16.564Z,0.00
2019-01-25T02:56:16.557Z,0.00
2019-01-25T02:57:16.540Z,0.00
2019-01-25T02:58:16.533Z,0.00
2019-01-25T02:59:16.522Z,0.00
2019-01-25T03:00:16.513Z,0.00
2019-01-25T03:01:16.504Z,0.00
2019-01-25T03:02:16.491Z,0.00
2019-01-25T03:03:16.476Z,0.00
2019-01-25T03:04:16.470Z,0.00
2019-01-25T03:05:16.458Z,0.00
2019-01-25T03:06:16.451Z,0.00
2019-01-25T03:07:16.435Z,0.00
2019-01-25T03:08:16.427Z,0.00
2019-01-25T03:09:16.416Z,0.00
2019-01-25T03:10:16.413Z,0.00
2019-01-25T03:11:16.402Z,0.00
2019-01-25T03:12:16.387Z,0.00
2019-01-25T03:13:16.374Z,0.00
2019-01-25T03:14:16.365Z,0.00
2019-01-25T03:15:16.352Z,0.00
2019-01-25T03:16:16.341Z,0.00
2019-01-25T03:17:16.331Z,0.00
2019-01-25T03:18:16.322Z,0.00
2019-01-25T03:19:16.322Z,0.00
2019-01-25T03:20:16.299Z,0.00
2019-01-25T03:21:16.293Z,0.00
2019-01-25T03:22:16.279Z,0.00
2019-01-25T03:23:16.276Z,0.00
2019-01-25T03:24:16.259Z,0.00
2019-01-25T03:25:16.250Z,0.00
2019-01-25T03:26:16.235Z,0.00
2019-01-25T03:27:16.227Z,0.00
2019-01-25T03:28:16.215Z,0.00
2019-01-25T03:29:16.207Z,0.00
2019-01-25T03:30:16.208Z,0.00
2019-01-25T03:31:16.187Z,0.00
2019-01-25T03:32:16.176Z,0.00
2019-01-25T03:33:16.163Z,0.00
2019-01-25T03:34:16.154Z,0.00
2019-01-25T03:35:16.143Z,0.00
2019-01-25T03:36:16.136Z,0.00
2019-01-25T03:37:16.121Z,0.00
2019-01-25T03:38:16.116Z,0.00
2019-01-25T03:39:16.101Z,0.00
2019-01-25T03:40:16.089Z,0.00
2019-01-25T03:41:16.083Z,0.00
2019-01-25T03:42:16.069Z,0.00
2019-01-25T03:43:16.063Z,0.00
2019-01-25T03:44:16.056Z,0.00
2019-01-25T03:45:16.037Z,0.00
2019-01-25T03:46:16.028Z,0.00
2019-01-25T03:47:16.017Z,0.00
2019-01-25T03:48:16.007Z,0.00
2019-01-25T03:49:16.006Z,0.00
2019-01-25T03:50:15.985Z,0.00
2019-01-25T03:51:15.978Z,0.00
2019-01-25T03:52:15.964Z,0.00
2019-01-25T03:53:15.952Z,0.00
2019-01-25T03:54:15.945Z,0.00
2019-01-25T03:55:15.934Z,0.00
2019-01-25T03:56:15.922Z,0.00
2019-01-25T03:57:15.910Z,0.00
2019-01-25T03:58:15.906Z,0.00
2019-01-25T03:59:15.892Z,0.00
2019-01-25T04:00:15.882Z,0.00
2019-01-25T04:01:15.875Z,0.00
2019-01-25T04:02:15.859Z,0.00
2019-01-25T04:03:15.853Z,0.00
2019-01-25T04:04:15.844Z,0.00
2019-01-25T04:05:15.833Z,0.00
2019-01-25T04:06:15.818Z,0.00
2019-01-25T04:07:15.811Z,0.00
2019-01-25T04:08:15.795Z,0.00
2019-01-25T04:09:15.795Z,0.00
2019-01-25T04:10:15.779Z,0.00
2019-01-25T04:11:15.763Z,0.00
2019-01-25T04:12:15.756Z,0.00
2019-01-25T04:13:15.747Z,0.00
2019-01-25T04:14:15.734Z,0.00
2019-01-25T04:15:15.729Z,0.00
2019-01-25T04:16:15.721Z,0.00
2019-01-25T04:17:15.706Z,0.00
2019-01-25T04:18:15.694Z,0.00
2019-01-25T04:19:15.684Z,0.00
2019-01-25T04:20:15.673Z,0.00
2019-01-25T04:21:15.682Z,0.00
2019-01-25T04:22:15.655Z,0.00
2019-01-25T04:23:15.638Z,0.00
2019-01-25T04:24:15.631Z,0.00
2019-01-25T04:25:15.621Z,0.00
2019-01-25T04:26:15.610Z,0.00
2019-01-25T04:27:15.599Z,0.00
2019-01-25T04:28:15.592Z,0.00
2019-01-25T04:29:15.581Z,0.00
2019-01-25T04:30:15.573Z,0.00
2019-01-25T04:31:15.559Z,0.00
2019-01-25T04:32:15.546Z,0.00
2019-01-25T04:33:15.539Z,0.00
2019-01-25T04:34:15.525Z,0.00
2019-01-25T04:35:15.526Z,0.00
2019-01-25T04:36:15.505Z,0.00
2019-01-25T04:37:15.495Z,0.00
2019-01-25T04:38:15.484Z,0.00
2019-01-25T04:39:15.475Z,0.00
2019-01-25T04:40:15.462Z,0.00
2019-01-25T04:41:15.454Z,0.00
2019-01-25T04:42:15.444Z,0.00
2019-01-25T04:43:15.435Z,0.00
2019-01-25T04:44:15.421Z,0.00
2019-01-25T04:45:15.412Z,0.00
2019-01-25T04:46:15.399Z,0.00
2019-01-25T04:47:15.392Z,0.00
2019-01-25T04:48:15.381Z,0.00
2019-01-25T04:49:15.367Z,0.00
2019-01-25T04:50:15.356Z,0.00
2019-01-25T04:51:15.351Z,0.00
2019-01-25T04:52:15.338Z,0.00
2019-01-25T04:53:15.325Z,0.00
2019-01-25T04:54:15.322Z,0.00
2019-01-25T04:55:15.302Z,0.00
2019-01-25T04:56:15.298Z,0.00
2019-01-25T04:57:15.287Z,0.00
2019-01-25T04:58:15.279Z,0.00
2019-01-25T04:59:15.265Z,0.00
2019-01-25T05:00:15.251Z,0.00
2019-01-25T05:01:15.243Z,0.00
2019-01-25T05:02:15.237Z,0.00
2019-01-25T05:03:15.218Z,0.00
2019-01-25T05:04:15.210Z,0.00
2019-01-25T05:05:15.201Z,0.00
2019-01-25T05:06:15.191Z,0.00
2019-01-25T05:07:15.182Z,0.00
2019-01-25T05:08:16.149Z,0.00
2019-01-25T05:09:15.161Z,0.00
2019-01-25T05:10:15.150Z,0.00
2019-01-25T05:11:20.002Z,0.00
2019-01-25T05:12:16.128Z,0.00
2019-01-25T05:13:15.120Z,0.00
2019-01-25T05:14:15.108Z,0.00
2019-01-25T05:15:15.095Z,0.00
2019-01-25T05:16:15.085Z,0.00
2019-01-25T05:17:15.079Z,0.00
2019-01-25T05:18:15.072Z,0.00
2019-01-25T05:19:15.052Z,0.00
2019-01-25T05:20:15.049Z,0.00
2019-01-25T05:21:15.036Z,0.00
2019-01-25T05:22:15.033Z,0.00
2019-01-25T05:23:15.016Z,0.00
2019-01-25T05:24:15.002Z,0.00
2019-01-25T05:25:14.991Z,0.00
2019-01-25T05:26:14.993Z,0.00
2019-01-25T05:27:14.978Z,0.00
2019-01-25T05:28:14.964Z,0.00
2019-01-25T05:29:14.953Z,0.00
2019-01-25T05:30:14.949Z,0.00
2019-01-25T05:31:14.928Z,0.00
2019-01-25T05:32:14.920Z,0.00
2019-01-25T05:33:14.907Z,0.00
2019-01-25T05:34:14.898Z,0.00
2019-01-25T05:35:14.889Z,0.00
2019-01-25T05:36:14.878Z,0.00
2019-01-25T05:37:14.865Z,0.00
2019-01-25T05:38:14.854Z,0.00
2019-01-25T05:39:14.843Z,0.00
2019-01-25T05:40:14.833Z,0.00
2019-01-25T05:41:14.826Z,0.00
2019-01-25T05:42:14.813Z,0.00
2019-01-25T05:43:14.802Z,0.00
2019-01-25T05:44:14.796Z,0.00
2019-01-25T05:45:14.780Z,0.00
2019-01-25T05:46:14.773Z,0.00
2019-01-25T05:47:14.765Z,0.00
2019-01-25T05:48:14.753Z,0.00
2019-01-25T05:49:14.737Z,0.00
2019-01-25T05:50:14.734Z,0.00
2019-01-25T05:51:14.718Z,0.00
2019-01-25T05:52:14.709Z,0.00
2019-01-25T05:53:14.698Z,0.00
2019-01-25T05:54:14.693Z,0.00
2019-01-25T05:55:14.679Z,0.00
2019-01-25T05:56:14.666Z,0.00
2019-01-25T05:57:14.654Z,0.00
2019-01-25T05:58:14.644Z,0.00
2019-01-25T05:59:14.633Z,0.00
2019-01-25T06:00:14.629Z,0.00
2019-01-25T06:01:14.616Z,0.00
2019-01-25T06:02:14.606Z,0.00
2019-01-25T06:03:14.592Z,0.00
2019-01-25T06:04:14.576Z,0.00
2019-01-25T06:05:14.567Z,0.00
2019-01-25T06:06:14.553Z,0.00
2019-01-25T06:07:14.552Z,0.00
2019-01-25T06:08:14.537Z,0.00
2019-01-25T06:09:14.531Z,0.00
2019-01-25T06:10:14.516Z,0.00
2019-01-25T06:11:14.504Z,0.00
2019-01-25T06:12:14.496Z,0.00
2019-01-25T06:13:14.488Z,0.00
2019-01-25T06:14:14.475Z,0.00
2019-01-25T06:15:14.459Z,0.00
2019-01-25T06:16:14.454Z,0.00
2019-01-25T06:17:14.447Z,0.00
2019-01-25T06:18:14.432Z,0.00
2019-01-25T06:19:14.421Z,0.00
2019-01-25T06:20:14.420Z,0.00
2019-01-25T06:21:14.404Z,0.00
2019-01-25T06:22:14.392Z,0.00
2019-01-25T06:23:14.378Z,0.00
2019-01-25T06:24:14.370Z,0.00
2019-01-25T06:25:14.363Z,0.00
2019-01-25T06:26:14.352Z,0.00
2019-01-25T06:27:14.339Z,0.00
2019-01-25T06:28:14.326Z,0.00
2019-01-25T06:29:14.320Z,0.00
2019-01-25T06:30:14.308Z,0.00
2019-01-25T06:31:14.298Z,0.00
2019-01-25T06:32:14.288Z,0.00
2019-01-25T06:33:14.299Z,0.00
2019-01-25T06:34:14.266Z,0.00
2019-01-25T06:35:14.324Z,0.00
2019-01-25T06:36:14.247Z,0.00
2019-01-25T06:37:14.231Z,0.00
2019-01-25T06:38:14.226Z,0.00
2019-01-25T06:39:14.210Z,0.00
2019-01-25T06:40:14.200Z,0.00
2019-01-25T06:41:14.189Z,0.00
2019-01-25T06:42:14.184Z,0.00
2019-01-25T06:43:14.166Z,0.00
2019-01-25T06:44:14.161Z,0.00
2019-01-25T06:45:14.149Z,0.00
2019-01-25T06:46:14.139Z,0.00
2019-01-25T06:47:14.128Z,0.00
2019-01-25T06:48:14.119Z,0.00
2019-01-25T06:49:14.106Z,0.00
2019-01-25T06:50:14.095Z,0.00
2019-01-25T06:51:14.086Z,0.00
2019-01-25T06:52:14.080Z,0.00
2019-01-25T06:53:14.064Z,0.00
2019-01-25T06:54:14.058Z,0.00
2019-01-25T06:55:14.047Z,0.00
2019-01-25T06:56:14.033Z,0.00
2019-01-25T06:57:14.024Z,0.00
2019-01-25T06:58:14.015Z,0.00
2019-01-25T06:59:14.002Z,0.00
2019-01-25T07:00:13.990Z,0.00
2019-01-25T07:01:13.983Z,0.00
2019-01-25T07:02:13.971Z,0.00
2019-01-25T07:03:13.960Z,0.00
2019-01-25T07:04:13.953Z,0.00
2019-01-25T07:05:13.940Z,0.00
2019-01-25T07:06:13.927Z,0.00
2019-01-25T07:07:13.919Z,0.00
2019-01-25T07:08:13.906Z,0.00
2019-01-25T07:09:13.894Z,0.00
2019-01-25T07:10:13.885Z,0.00
2019-01-25T07:11:13.876Z,0.00
2019-01-25T07:12:13.868Z,0.00
2019-01-25T07:13:13.901Z,0.00
2019-01-25T07:14:13.849Z,0.00
2019-01-25T07:15:13.838Z,0.00
2019-01-25T07:16:13.827Z,0.00
2019-01-25T07:17:13.818Z,0.00
2019-01-25T07:18:13.803Z,0.00
2019-01-25T07:19:13.796Z,0.00
2019-01-25T07:20:13.782Z,0.00
2019-01-25T07:21:13.770Z,0.00
2019-01-25T07:22:13.760Z,0.00
2019-01-25T07:23:13.753Z,5.62
2019-01-25T07:24:13.736Z,5.62
2019-01-25T07:25:13.727Z,5.62
2019-01-25T07:26:13.718Z,5.62
2019-01-25T07:27:13.708Z,5.62
2019-01-25T07:28:13.702Z,5.62
2019-01-25T07:29:13.693Z,5.62
2019-01-25T07:30:13.686Z,5.62
2019-01-25T07:31:13.677Z,5.62
2019-01-25T07:32:13.675Z,0.00
2019-01-25T07:33:13.678Z,5.62
2019-01-25T07:34:13.713Z,5.62
2019-01-25T07:35:13.625Z,5.62
2019-01-25T07:36:13.614Z,5.62
2019-01-25T07:37:13.606Z,5.62
2019-01-25T07:38:13.592Z,5.62
2019-01-25T07:39:13.588Z,5.62
2019-01-25T07:40:13.573Z,0.00
2019-01-25T07:41:13.562Z,0.00
2019-01-25T07:42:13.551Z,0.00
2019-01-25T07:43:13.553Z,0.00
2019-01-25T07:44:13.527Z,5.62
2019-01-25T07:45:13.545Z,5.62
2019-01-25T07:46:13.512Z,5.62
2019-01-25T07:47:13.502Z,5.62
2019-01-25T07:48:13.505Z,5.62
2019-01-25T07:49:13.476Z,5.62
2019-01-25T07:50:13.467Z,5.62
2019-01-25T07:51:13.456Z,5.62
2019-01-25T07:52:13.450Z,5.62
2019-01-25T07:53:13.439Z,11.25
2019-01-25T07:54:13.423Z,11.25
2019-01-25T07:55:13.417Z,11.25
2019-01-25T07:56:13.410Z,11.25
2019-01-25T07:57:13.395Z,11.25
2019-01-25T07:58:13.394Z,16.88
2019-01-25T07:59:13.373Z,16.88
2019-01-25T08:00:13.361Z,16.88
2019-01-25T08:01:13.351Z,16.88
2019-01-25T08:02:13.359Z,16.88
2019-01-25T08:03:13.334Z,16.88
2019-01-25T08:04:13.317Z,16.88
2019-01-25T08:05:13.313Z,22.50
2019-01-25T08:06:13.325Z,22.50
2019-01-25T08:07:13.292Z,22.50
2019-01-25T08:08:13.273Z,22.50
2019-01-25T08:09:13.293Z,22.50
2019-01-25T08:10:13.261Z,22.50
2019-01-25T08:11:13.250Z,22.50
2019-01-25T08:12:13.268Z,22.50
2019-01-25T08:13:13.241Z,22.50
2019-01-25T08:14:13.279Z,22.50
2019-01-25T08:15:13.242Z,22.50
2019-01-25T08:16:13.202Z,28.12
2019-01-25T08:17:13.181Z,28.12
2019-01-25T08:18:13.169Z,28.12
2019-01-25T08:19:13.160Z,28.12
2019-01-25T08:20:13.169Z,28.12
2019-01-25T08:21:13.145Z,28.12
2019-01-25T08:22:13.173Z,28.12
2019-01-25T08:23:13.112Z,28.12
2019-01-25T08:24:13.133Z,28.12
2019-01-25T08:25:13.096Z,28.12
2019-01-25T08:26:13.085Z,28.12
2019-01-25T08:27:13.077Z,28.12
2019-01-25T08:28:13.065Z,28.12
2019-01-25T08:29:13.058Z,28.12
2019-01-25T08:30:13.106Z,28.12
2019-01-25T08:31:13.036Z,28.12
2019-01-25T08:32:13.023Z,28.12
2019-01-25T08:33:13.015Z,28.12
2019-01-25T08:34:13.001Z,28.12
2019-01-25T08:35:13.020Z,28.12
2019-01-25T08:36:12.980Z,33.75
2019-01-25T08:37:12.994Z,33.75
2019-01-25T08:38:12.968Z,39.38
2019-01-25T08:39:12.974Z,45.00
2019-01-25T08:40:12.977Z,50.62
2019-01-25T08:41:12.926Z,50.62
2019-01-25T08:42:15.673Z,50.62
2019-01-25T08:43:12.906Z,50.62
2019-01-25T08:44:12.909Z,56.25
2019-01-25T08:45:12.911Z,56.25
2019-01-25T08:46:12.928Z,56.25
2019-01-25T08:47:12.933Z,61.88
2019-01-25T08:48:12.854Z,67.50
2019-01-25T08:49:12.866Z,67.50
2019-01-25T08:50:12.835Z,73.12
2019-01-25T08:51:12.822Z,73.12
2019-01-25T08:52:13.052Z,78.75
2019-01-25T08:53:12.844Z,78.75
2019-01-25T08:54:14.220Z,78.75
2019-01-25T08:55:12.781Z,84.38
2019-01-25T08:56:12.796Z,90.00
2019-01-25T08:57:12.761Z,90.00
2019-01-25T08:58:12.777Z,95.62
2019-01-25T08:59:12.735Z,95.62
2019-01-25T09:00:12.732Z,95.62
2019-01-25T09:01:12.720Z,95.62
2019-01-25T09:02:12.714Z,95.62
2019-01-25T09:03:12.700Z,95.62
2019-01-25T09:04:12.689Z,95.62
2019-01-25T09:05:12.717Z,90.00
2019-01-25T09:06:12.668Z,90.00
2019-01-25T09:07:12.657Z,84.38
2019-01-25T09:08:12.651Z,84.38
2019-01-25T09:09:12.634Z,84.38
2019-01-25T09:10:12.627Z,78.75
2019-01-25T09:11:12.616Z,78.75
2019-01-25T09:12:12.605Z,78.75
2019-01-25T09:13:12.592Z,78.75
2019-01-25T09:14:12.584Z,84.38
2019-01-25T09:15:12.577Z,90.00
2019-01-25T09:16:12.570Z,95.62
2019-01-25T09:17:12.550Z,101.25
2019-01-25T09:18:12.545Z,112.50
2019-01-25T09:19:12.531Z,123.75
2019-01-25T09:20:14.518Z,151.88
2019-01-25T09:21:12.513Z,174.38
2019-01-25T09:22:12.498Z,202.50
2019-01-25T09:23:12.486Z,225.00
2019-01-25T09:24:12.474Z,264.38
2019-01-25T09:25:12.466Z,315.00
2019-01-25T09:26:12.456Z,382.50
2019-01-25T09:27:12.447Z,466.88
2019-01-25T09:28:12.432Z,528.75
2019-01-25T09:29:12.427Z,618.75
2019-01-25T09:30:12.417Z,736.88
2019-01-25T09:31:12.404Z,894.38
2019-01-25T09:32:12.390Z,1035.00
2019-01-25T09:33:12.383Z,1023.75
2019-01-25T09:34:12.378Z,967.50
2019-01-25T09:35:12.364Z,916.88
2019-01-25T09:36:12.353Z,1012.50
2019-01-25T09:37:12.345Z,1130.62
2019-01-25T09:38:12.328Z,1063.12
2019-01-25T09:39:12.318Z,922.50
2019-01-25T09:40:12.310Z,866.25
2019-01-25T09:41:12.298Z,798.75
2019-01-25T09:42:12.287Z,753.75
2019-01-25T09:43:12.276Z,765.00
2019-01-25T09:44:12.265Z,759.38
2019-01-25T09:45:12.255Z,708.75
2019-01-25T09:46:12.249Z,635.62
2019-01-25T09:47:12.233Z,596.25
2019-01-25T09:48:12.232Z,601.88
2019-01-25T09:49:12.214Z,613.12
2019-01-25T09:50:12.204Z,590.62
2019-01-25T09:51:12.190Z,573.75
2019-01-25T09:52:12.180Z,534.38
2019-01-25T09:53:12.175Z,433.12
2019-01-25T09:54:12.163Z,360.00
2019-01-25T09:55:12.150Z,286.88
2019-01-25T09:56:12.141Z,247.50
2019-01-25T09:57:12.129Z,219.38
2019-01-25T09:58:12.123Z,185.62
2019-01-25T09:59:12.117Z,163.12
2019-01-25T10:00:12.097Z,146.25
2019-01-25T10:01:12.090Z,140.62
2019-01-25T10:02:12.078Z,140.62
2019-01-25T10:03:12.070Z,135.00
2019-01-25T10:04:12.058Z,129.38
2019-01-25T10:05:12.046Z,129.38
2019-01-25T10:06:12.036Z,129.38
2019-01-25T10:07:12.025Z,140.62
2019-01-25T10:08:12.017Z,146.25
2019-01-25T10:09:12.005Z,163.12
2019-01-25T10:10:11.990Z,185.62
2019-01-25T10:11:11.983Z,230.62
2019-01-25T10:12:11.972Z,264.38
2019-01-25T10:13:11.958Z,258.75
2019-01-25T10:14:11.953Z,270.00
2019-01-25T10:15:11.936Z,371.25
2019-01-25T10:16:11.930Z,579.38
2019-01-25T10:17:11.918Z,793.12
2019-01-25T10:18:11.910Z,911.25
2019-01-25T10:19:11.898Z,995.62
2019-01-25T10:20:11.893Z,945.00
2019-01-25T10:21:11.883Z,680.62
2019-01-25T10:22:11.866Z,708.75
2019-01-25T10:23:11.856Z,641.25
2019-01-25T10:24:11.848Z,556.88
2019-01-25T10:25:11.834Z,534.38
2019-01-25T10:26:11.828Z,523.12
2019-01-25T10:27:11.818Z,534.38
2019-01-25T10:28:11.832Z,551.25
2019-01-25T10:29:11.795Z,590.62
2019-01-25T10:30:11.788Z,613.12
2019-01-25T10:31:11.771Z,635.62
2019-01-25T10:32:11.764Z,826.88
2019-01-25T10:33:11.753Z,708.75
2019-01-25T10:34:11.746Z,787.50
2019-01-25T10:35:11.731Z,1513.12
2019-01-25T10:36:11.719Z,1586.25
2019-01-25T10:37:11.708Z,1428.75
2019-01-25T10:38:11.739Z,776.25
2019-01-25T10:39:11.687Z,956.25
2019-01-25T10:40:11.677Z,1710.00
2019-01-25T10:41:11.672Z,1721.25
2019-01-25T10:42:11.658Z,1530.00
2019-01-25T10:43:11.644Z,1732.50
2019-01-25T10:44:11.642Z,1586.25
2019-01-25T10:45:11.622Z,1383.75
2019-01-25T10:46:11.615Z,1091.25
2019-01-25T10:47:11.603Z,736.88
2019-01-25T10:48:11.592Z,933.75
2019-01-25T10:49:11.583Z,781.88
2019-01-25T10:50:11.570Z,669.38
2019-01-25T10:51:11.565Z,630.00
2019-01-25T10:52:11.556Z,573.75
2019-01-25T10:53:11.543Z,528.75
2019-01-25T10:54:11.527Z,489.38
2019-01-25T10:55:11.519Z,466.88
2019-01-25T10:56:11.521Z,438.75
2019-01-25T10:57:11.493Z,405.00
2019-01-25T10:58:11.496Z,388.12
2019-01-25T10:59:11.481Z,382.50
2019-01-25T11:00:11.470Z,393.75
2019-01-25T11:01:11.453Z,433.12
2019-01-25T11:02:11.442Z,472.50
2019-01-25T11:03:11.431Z,450.00
2019-01-25T11:04:11.823Z,371.25
2019-01-25T11:05:11.411Z,326.25
2019-01-25T11:06:11.402Z,326.25
2019-01-25T11:07:11.397Z,348.75
2019-01-25T11:08:11.379Z,343.12
2019-01-25T11:09:11.377Z,315.00
2019-01-25T11:10:11.362Z,286.88
2019-01-25T11:11:11.348Z,264.38
2019-01-25T11:12:11.337Z,258.75
2019-01-25T11:13:11.332Z,258.75
2019-01-25T11:14:11.316Z,253.12
2019-01-25T11:15:11.305Z,230.62
2019-01-25T11:16:12.048Z,219.38
2019-01-25T11:17:11.311Z,219.38
2019-01-25T11:18:11.344Z,230.62
2019-01-25T11:19:11.301Z,241.88
2019-01-25T11:20:11.290Z,230.62
2019-01-25T11:21:11.337Z,213.75
2019-01-25T11:22:11.232Z,208.12
2019-01-25T11:23:11.224Z,196.88
2019-01-25T11:24:11.221Z,191.25
2019-01-25T11:25:11.204Z,191.25
2019-01-25T11:26:11.192Z,191.25
2019-01-25T11:27:11.190Z,191.25
2019-01-25T11:28:11.187Z,191.25
2019-01-25T11:29:11.241Z,191.25
2019-01-25T11:30:11.209Z,191.25
2019-01-25T11:31:11.138Z,185.62
2019-01-25T11:32:11.129Z,174.38
2019-01-25T11:33:11.119Z,157.50
2019-01-25T11:34:11.108Z,146.25
2019-01-25T11:35:11.095Z,135.00
2019-01-25T11:36:11.084Z,129.38
2019-01-25T11:37:11.077Z,118.12
2019-01-25T11:38:11.062Z,118.12
2019-01-25T11:39:11.055Z,118.12
2019-01-25T11:40:11.048Z,112.50
2019-01-25T11:41:11.039Z,112.50
2019-01-25T11:42:11.033Z,112.50
2019-01-25T11:43:11.011Z,112.50
2019-01-25T11:44:11.000Z,112.50
2019-01-25T11:45:10.991Z,112.50
2019-01-25T11:46:10.982Z,112.50
2019-01-25T11:47:10.975Z,118.12
2019-01-25T11:48:10.962Z,123.75
2019-01-25T11:49:10.951Z,123.75
2019-01-25T11:50:10.938Z,123.75
2019-01-25T11:51:10.933Z,135.00
2019-01-25T11:52:10.918Z,157.50
2019-01-25T11:53:10.947Z,191.25
2019-01-25T11:54:10.896Z,225.00
2019-01-25T11:55:10.887Z,264.38
2019-01-25T11:56:10.874Z,326.25
2019-01-25T11:57:10.864Z,270.00
2019-01-25T11:58:10.859Z,247.50
2019-01-25T11:59:10.852Z,241.88
2019-01-25T12:00:10.845Z,247.50
2019-01-25T12:01:10.837Z,253.12
2019-01-25T12:02:10.812Z,286.88
2019-01-25T12:03:10.806Z,309.38
2019-01-25T12:04:10.799Z,393.75
2019-01-25T12:05:10.786Z,376.88
2019-01-25T12:06:10.790Z,337.50
2019-01-25T12:07:10.773Z,416.25
2019-01-25T12:08:10.788Z,562.50
2019-01-25T12:09:10.750Z,596.25
2019-01-25T12:10:10.767Z,613.12
2019-01-25T12:11:10.722Z,658.12
2019-01-25T12:12:10.715Z,697.50
2019-01-25T12:13:16.057Z,871.88
2019-01-25T12:14:11.690Z,950.62
2019-01-25T12:15:10.696Z,866.25
2019-01-25T12:16:10.693Z,950.62
2019-01-25T12:17:10.658Z,939.38
2019-01-25T12:18:10.645Z,855.00
2019-01-25T12:19:10.648Z,697.50
2019-01-25T12:20:10.626Z,618.75
2019-01-25T12:21:10.613Z,601.88
2019-01-25T12:22:10.628Z,624.38
2019-01-25T12:23:12.025Z,669.38
2019-01-25T12:24:10.583Z,680.62
2019-01-25T12:25:10.580Z,736.88
2019-01-25T12:26:10.564Z,753.75
2019-01-25T12:27:10.559Z,691.88
2019-01-25T12:28:10.544Z,843.75
2019-01-25T12:29:10.528Z,798.75
2019-01-25T12:30:10.521Z,680.62
2019-01-25T12:31:10.503Z,618.75
2019-01-25T12:32:10.497Z,551.25
2019-01-25T12:33:10.480Z,506.25
2019-01-25T12:34:10.473Z,495.00
2019-01-25T12:35:10.459Z,511.88
2019-01-25T12:36:10.450Z,517.50
2019-01-25T12:37:10.442Z,489.38
2019-01-25T12:38:10.431Z,466.88
2019-01-25T12:39:10.417Z,461.25
2019-01-25T12:40:10.407Z,461.25
2019-01-25T12:41:10.398Z,433.12
2019-01-25T12:42:10.385Z,399.38
2019-01-25T12:43:10.376Z,382.50
2019-01-25T12:44:10.365Z,371.25
2019-01-25T12:45:10.355Z,365.62
2019-01-25T12:46:10.344Z,376.88
2019-01-25T12:47:10.332Z,399.38
2019-01-25T12:48:10.324Z,421.88
2019-01-25T12:49:10.312Z,416.25
2019-01-25T12:50:10.305Z,405.00
2019-01-25T12:51:10.295Z,405.00
2019-01-25T12:52:10.282Z,410.62
2019-01-25T12:53:10.271Z,410.62
2019-01-25T12:54:10.259Z,393.75
2019-01-25T12:55:10.248Z,354.38
2019-01-25T12:56:10.240Z,337.50
2019-01-25T12:57:10.226Z,331.88
2019-01-25T12:58:10.216Z,331.88
2019-01-25T12:59:10.207Z,343.12
2019-01-25T13:00:10.196Z,360.00